Moline, Illinois
Current Conditions -  °F | °C
As of 2:52 PM on Friday 24 Oct 2014 (Local Time) from KMLI Reporting Station
Haze Haze  
Wind Chill: 68°   Ceiling: Unl
Heat Index: 68°   Visibility: 5mi
Dew Point: 51°   Wind: 14mph
Humidity: 55%   Direction: 220°SW
Pressure: 29.95"   Gusts: 23mph
Location:  41.49°N, 90.49°W
Report Text: KMLI 241952Z 22012G20KT 5SM HZ CLR 20/11 A2995 RMK AO2 SLP141 T02000106
Loading
Personal Weather Stations






























Interactive Weather Map New forecast layout! Learn more

10-Day Weather Forecast

Advertisements
Track Severe Weather on mobile